AWQ666 WAMM-WALL
Flight info
| Callsign | AWQ666 |
|---|---|
| Flight time | N/A |
| Altitude | 36000 |
| Route | WAMM/36 N0451F360 GOTS1K GOTSA W15 LADOP DCT WALL/07 |
| Aircraft | A320/M-SDE2E3FGHIRWXY/LB1 |
Departure
| Time | 2026-05-01 11:07 |
|---|---|
| Airport | Sam Ratulangi International Airport (WAMM) |
Arrival
| Time | N/A |
|---|---|
| Airport | Sultan Aji Muhammad Sulaiman Sepinggan International Airport (WALL) |
| Time | Latitude | Longitude | Altitude | Speed | Heading |
|---|---|---|---|---|---|
| 2026-05-01 10:48 | 1.54350 | 124.92335 | 336 ft | 0 kts | 261° |
| 2026-05-01 10:58 | 1.54352 | 124.92344 | 336 ft | 4 kts | 261° |
| 2026-05-01 10:58 | 1.54356 | 124.92370 | 334 ft | 4 kts | 261° |
| 2026-05-01 10:58 | 1.54360 | 124.92396 | 332 ft | 4 kts | 254° |
| 2026-05-01 10:58 | 1.54372 | 124.92417 | 333 ft | 4 kts | 208° |
| 2026-05-01 10:59 | 1.54387 | 124.92423 | 331 ft | 0 kts | 189° |
| 2026-05-01 11:02 | 1.54378 | 124.92422 | 331 ft | 2 kts | 189° |
| 2026-05-01 11:02 | 1.54354 | 124.92419 | 334 ft | 7 kts | 182° |
| 2026-05-01 11:02 | 1.54306 | 124.92417 | 336 ft | 6 kts | 182° |
| 2026-05-01 11:03 | 1.54267 | 124.92416 | 335 ft | 7 kts | 181° |
| 2026-05-01 11:03 | 1.54202 | 124.92414 | 334 ft | 11 kts | 181° |
| 2026-05-01 11:03 | 1.54132 | 124.92412 | 334 ft | 9 kts | 181° |
| 2026-05-01 11:03 | 1.54072 | 124.92410 | 336 ft | 8 kts | 182° |
| 2026-05-01 11:04 | 1.54007 | 124.92409 | 336 ft | 12 kts | 171° |
| 2026-05-01 11:04 | 1.53939 | 124.92433 | 335 ft | 9 kts | 176° |
| 2026-05-01 11:04 | 1.53869 | 124.92430 | 336 ft | 10 kts | 182° |
| 2026-05-01 11:04 | 1.53780 | 124.92430 | 334 ft | 13 kts | 166° |
| 2026-05-01 11:05 | 1.53744 | 124.92496 | 334 ft | 10 kts | 92° |
| 2026-05-01 11:05 | 1.53743 | 124.92562 | 332 ft | 9 kts | 90° |
| 2026-05-01 11:05 | 1.53771 | 124.92591 | 336 ft | 5 kts | 10° |
| 2026-05-01 11:05 | 1.53808 | 124.92594 | 337 ft | 5 kts | 2° |
| 2026-05-01 11:06 | 1.53993 | 124.92600 | 336 ft | 63 kts | 2° |
| 2026-05-01 11:06 | 1.54656 | 124.92623 | 336 ft | 126 kts | 2° |
| 2026-05-01 11:06 | 1.55712 | 124.92663 | 386 ft | 170 kts | 2° |
| 2026-05-01 11:07 | 1.58138 | 124.92608 | 1520 ft | 185 kts | 350° |
| 2026-05-01 11:07 | 1.59469 | 124.92287 | 1759 ft | 208 kts | 347° |
| 2026-05-01 11:07 | 1.60948 | 124.91888 | 2003 ft | 233 kts | 346° |
| 2026-05-01 11:07 | 1.62589 | 124.91439 | 2382 ft | 256 kts | 346° |
| 2026-05-01 11:08 | 1.64348 | 124.90964 | 3073 ft | 265 kts | 346° |
| 2026-05-01 11:08 | 1.66047 | 124.90209 | 3829 ft | 272 kts | 324° |
| 2026-05-01 11:08 | 1.67712 | 124.87570 | 5158 ft | 280 kts | 279° |
| 2026-05-01 11:09 | 1.67381 | 124.85030 | 6216 ft | 284 kts | 245° |
| 2026-05-01 11:09 | 1.66527 | 124.83247 | 6999 ft | 285 kts | 244° |
| 2026-05-01 11:09 | 1.65936 | 124.82039 | 7504 ft | 287 kts | 244° |
| 2026-05-01 11:10 | 1.64155 | 124.78408 | 8987 ft | 294 kts | 244° |
| 2026-05-01 11:10 | 1.62957 | 124.75956 | 9929 ft | 299 kts | 244° |
| 2026-05-01 11:10 | 1.62338 | 124.74686 | 10273 ft | 306 kts | 244° |
| 2026-05-01 11:10 | 1.61369 | 124.72694 | 10436 ft | 329 kts | 244° |
| 2026-05-01 11:11 | 1.60351 | 124.70591 | 10546 ft | 352 kts | 244° |
| 2026-05-01 11:11 | 1.59260 | 124.68331 | 10770 ft | 368 kts | 244° |
| 2026-05-01 11:11 | 1.58133 | 124.66001 | 11262 ft | 374 kts | 244° |
| 2026-05-01 11:11 | 1.56995 | 124.63653 | 11839 ft | 378 kts | 244° |
| 2026-05-01 11:12 | 1.55841 | 124.61278 | 12424 ft | 381 kts | 244° |
| 2026-05-01 11:12 | 1.54679 | 124.58884 | 12997 ft | 385 kts | 244° |
| 2026-05-01 11:12 | 1.53507 | 124.56467 | 13564 ft | 388 kts | 244° |
| 2026-05-01 11:12 | 1.52327 | 124.54029 | 14075 ft | 391 kts | 244° |
| 2026-05-01 11:13 | 1.51139 | 124.51575 | 14573 ft | 394 kts | 244° |
| 2026-05-01 11:13 | 1.49940 | 124.49100 | 15066 ft | 397 kts | 244° |
| 2026-05-01 11:13 | 1.48731 | 124.46605 | 15549 ft | 400 kts | 244° |
| 2026-05-01 11:13 | 1.47515 | 124.44097 | 16042 ft | 403 kts | 244° |
| 2026-05-01 11:14 | 1.46286 | 124.41562 | 16520 ft | 406 kts | 244° |
| 2026-05-01 11:14 | 1.45052 | 124.39015 | 17000 ft | 409 kts | 244° |
| 2026-05-01 11:14 | 1.43809 | 124.36452 | 17477 ft | 412 kts | 244° |
| 2026-05-01 11:14 | 1.42554 | 124.33866 | 17933 ft | 415 kts | 243° |
| 2026-05-01 11:15 | 1.41292 | 124.31261 | 18367 ft | 418 kts | 243° |
| 2026-05-01 11:15 | 1.40035 | 124.28666 | 18754 ft | 421 kts | 243° |
| 2026-05-01 11:15 | 1.38753 | 124.26021 | 19139 ft | 424 kts | 243° |
| 2026-05-01 11:15 | 1.37951 | 124.24373 | 19382 ft | 426 kts | 243° |
| 2026-05-01 11:16 | 1.37007 | 124.22412 | 19669 ft | 428 kts | 244° |
| 2026-05-01 11:16 | 1.35711 | 124.19728 | 20042 ft | 430 kts | 243° |
| 2026-05-01 11:16 | 1.34397 | 124.17030 | 20417 ft | 433 kts | 243° |
| 2026-05-01 11:16 | 1.33076 | 124.14317 | 20777 ft | 436 kts | 243° |
| 2026-05-01 11:17 | 1.31750 | 124.11580 | 21136 ft | 438 kts | 244° |
| 2026-05-01 11:17 | 1.30420 | 124.08831 | 21484 ft | 441 kts | 244° |
| 2026-05-01 11:17 | 1.29081 | 124.06068 | 21825 ft | 443 kts | 243° |
| 2026-05-01 11:17 | 1.27732 | 124.03286 | 22159 ft | 446 kts | 244° |
| 2026-05-01 11:18 | 1.26379 | 124.00489 | 22492 ft | 448 kts | 244° |
| 2026-05-01 11:18 | 1.25021 | 123.97683 | 22814 ft | 450 kts | 243° |
| 2026-05-01 11:18 | 1.23653 | 123.94859 | 23130 ft | 452 kts | 243° |
| 2026-05-01 11:18 | 1.22276 | 123.92020 | 23429 ft | 455 kts | 244° |
| 2026-05-01 11:19 | 1.20896 | 123.89171 | 23684 ft | 457 kts | 243° |
| 2026-05-01 11:19 | 1.19509 | 123.86308 | 23934 ft | 459 kts | 243° |
| 2026-05-01 11:19 | 1.18112 | 123.83434 | 24187 ft | 460 kts | 243° |
| 2026-05-01 11:19 | 1.16708 | 123.80555 | 24427 ft | 462 kts | 243° |
| 2026-05-01 11:20 | 1.15293 | 123.77666 | 24668 ft | 463 kts | 243° |
| 2026-05-01 11:20 | 1.13875 | 123.74771 | 24900 ft | 465 kts | 243° |
| 2026-05-01 11:20 | 1.12456 | 123.71858 | 25133 ft | 467 kts | 243° |
| 2026-05-01 11:20 | 1.11068 | 123.69001 | 25366 ft | 468 kts | 243° |
| 2026-05-01 11:21 | 1.10530 | 123.67900 | 25445 ft | 469 kts | 243° |
| 2026-05-01 11:21 | 1.09100 | 123.64959 | 25654 ft | 471 kts | 243° |
| 2026-05-01 11:21 | 1.07673 | 123.62008 | 25880 ft | 473 kts | 243° |
| 2026-05-01 11:21 | 1.06241 | 123.59046 | 26096 ft | 474 kts | 243° |
| 2026-05-01 11:22 | 1.04804 | 123.56074 | 26313 ft | 476 kts | 243° |
| 2026-05-01 11:22 | 1.03360 | 123.53093 | 26529 ft | 477 kts | 243° |
| 2026-05-01 11:22 | 1.01911 | 123.50106 | 26735 ft | 478 kts | 243° |
| 2026-05-01 11:22 | 1.00477 | 123.47152 | 26935 ft | 480 kts | 243° |
| 2026-05-01 11:23 | 0.98996 | 123.44105 | 27125 ft | 481 kts | 243° |
| 2026-05-01 11:23 | 0.97554 | 123.41129 | 27327 ft | 483 kts | 243° |
| 2026-05-01 11:23 | 0.96096 | 123.38110 | 27500 ft | 484 kts | 243° |
| 2026-05-01 11:23 | 0.94642 | 123.35063 | 27680 ft | 485 kts | 245° |
| 2026-05-01 11:24 | 0.93513 | 123.31884 | 27850 ft | 488 kts | 254° |
| 2026-05-01 11:24 | 0.92727 | 123.28576 | 28020 ft | 489 kts | 256° |
| 2026-05-01 11:24 | 0.91157 | 123.21957 | 28430 ft | 489 kts | 256° |
| 2026-05-01 11:25 | 0.90362 | 123.18650 | 28677 ft | 489 kts | 256° |
| 2026-05-01 11:25 | 0.88780 | 123.12046 | 29169 ft | 488 kts | 256° |
| 2026-05-01 11:25 | 0.87994 | 123.08752 | 29414 ft | 488 kts | 256° |
| 2026-05-01 11:26 | 0.87261 | 123.05443 | 29676 ft | 487 kts | 262° |
| 2026-05-01 11:26 | 0.86014 | 122.98827 | 30266 ft | 483 kts | 262° |
| 2026-05-01 11:26 | 0.85306 | 122.95541 | 30397 ft | 484 kts | 259° |
| 2026-05-01 11:27 | 0.84464 | 122.92289 | 30598 ft | 483 kts | 257° |
| 2026-05-01 11:27 | 0.83564 | 122.89056 | 30793 ft | 482 kts | 257° |
| 2026-05-01 11:27 | 0.82673 | 122.85828 | 30976 ft | 482 kts | 258° |
| 2026-05-01 11:27 | 0.81826 | 122.82590 | 31161 ft | 482 kts | 258° |
| 2026-05-01 11:28 | 0.81008 | 122.79340 | 31358 ft | 482 kts | 259° |
| 2026-05-01 11:28 | 0.80232 | 122.76130 | 31567 ft | 481 kts | 259° |
| 2026-05-01 11:28 | 0.79467 | 122.72836 | 31805 ft | 479 kts | 260° |
| 2026-05-01 11:29 | 0.78056 | 122.66355 | 32336 ft | 475 kts | 261° |
| 2026-05-01 11:29 | 0.77380 | 122.63120 | 32479 ft | 477 kts | 261° |
| 2026-05-01 11:29 | 0.75948 | 122.56629 | 32714 ft | 479 kts | 260° |
| 2026-05-01 11:30 | 0.75194 | 122.53390 | 32875 ft | 478 kts | 260° |
| 2026-05-01 11:30 | 0.74393 | 122.50207 | 33083 ft | 477 kts | 258° |
| 2026-05-01 11:30 | 0.73521 | 122.47025 | 33331 ft | 474 kts | 258° |
| 2026-05-01 11:30 | 0.72601 | 122.43855 | 33525 ft | 474 kts | 257° |
| 2026-05-01 11:31 | 0.71666 | 122.40705 | 33721 ft | 473 kts | 257° |
| 2026-05-01 11:31 | 0.70728 | 122.37560 | 33942 ft | 471 kts | 257° |
| 2026-05-01 11:31 | 0.69803 | 122.34431 | 34115 ft | 466 kts | 258° |
| 2026-05-01 11:31 | 0.69022 | 122.31337 | 33989 ft | 453 kts | 261° |
| 2026-05-01 11:32 | 0.68380 | 122.28286 | 33570 ft | 446 kts | 262° |
| 2026-05-01 11:32 | 0.67763 | 122.25271 | 33145 ft | 439 kts | 261° |
| 2026-05-01 11:32 | 0.67078 | 122.22279 | 32794 ft | 449 kts | 260° |
| 2026-05-01 11:32 | 0.66302 | 122.19207 | 32573 ft | 461 kts | 259° |
| 2026-05-01 11:33 | 0.65539 | 122.16080 | 32639 ft | 465 kts | 259° |
| 2026-05-01 11:33 | 0.64030 | 122.09750 | 32853 ft | 471 kts | 260° |
| 2026-05-01 11:33 | 0.63279 | 122.06555 | 32974 ft | 473 kts | 260° |
| 2026-05-01 11:34 | 0.62514 | 122.03351 | 32943 ft | 474 kts | 259° |
| 2026-05-01 11:34 | 0.60928 | 121.96960 | 32968 ft | 474 kts | 259° |
| 2026-05-01 11:35 | 0.59262 | 121.90572 | 33098 ft | 474 kts | 258° |
| 2026-05-01 11:35 | 0.57670 | 121.84222 | 32843 ft | 474 kts | 261° |
| 2026-05-01 11:35 | 0.57035 | 121.80985 | 32593 ft | 474 kts | 263° |
| 2026-05-01 11:36 | 0.56493 | 121.77730 | 32564 ft | 475 kts | 264° |
| 2026-05-01 11:36 | 0.55640 | 121.71169 | 32590 ft | 477 kts | 267° |
| 2026-05-01 11:37 | 0.54478 | 121.64642 | 32414 ft | 481 kts | 252° |
| 2026-05-01 11:37 | 0.53009 | 121.61659 | 32414 ft | 480 kts | 240° |
| 2026-05-01 11:37 | 0.51087 | 121.58927 | 32449 ft | 479 kts | 236° |
| 2026-05-01 11:38 | 0.47321 | 121.53473 | 32342 ft | 476 kts | 239° |
| 2026-05-01 11:38 | 0.45526 | 121.50691 | 32234 ft | 476 kts | 240° |
| 2026-05-01 11:38 | 0.43774 | 121.47882 | 32153 ft | 477 kts | 241° |
| 2026-05-01 11:39 | 0.40390 | 121.42174 | 32073 ft | 478 kts | 243° |
| 2026-05-01 11:39 | 0.37192 | 121.36401 | 32008 ft | 479 kts | 244° |
| 2026-05-01 11:40 | 0.33995 | 121.30555 | 31886 ft | 480 kts | 243° |
| 2026-05-01 11:40 | 0.30527 | 121.24845 | 31911 ft | 480 kts | 240° |
| 2026-05-01 11:41 | 0.26923 | 121.19359 | 31888 ft | 457 kts | 238° |
| 2026-05-01 11:41 | 0.25151 | 121.16791 | 31833 ft | 446 kts | 238° |
| 2026-05-01 11:41 | 0.23387 | 121.14232 | 31774 ft | 446 kts | 238° |
| 2026-05-01 11:41 | 0.21652 | 121.11678 | 31329 ft | 441 kts | 239° |
| 2026-05-01 11:42 | 0.19964 | 121.09142 | 30919 ft | 436 kts | 239° |
| 2026-05-01 11:42 | 0.18326 | 121.06623 | 30520 ft | 430 kts | 240° |
| 2026-05-01 11:42 | 0.16739 | 121.04118 | 30165 ft | 424 kts | 241° |
| 2026-05-01 11:42 | 0.15148 | 121.01633 | 29344 ft | 428 kts | 239° |
| 2026-05-01 11:43 | 0.13518 | 120.99145 | 28360 ft | 437 kts | 240° |
| 2026-05-01 11:43 | 0.11903 | 120.96549 | 27450 ft | 443 kts | 241° |
| 2026-05-01 11:43 | 0.10318 | 120.93894 | 26566 ft | 447 kts | 241° |
| 2026-05-01 11:44 | 0.07225 | 120.88399 | 24702 ft | 459 kts | 245° |
| 2026-05-01 11:44 | 0.05830 | 120.85511 | 23692 ft | 466 kts | 248° |
| 2026-05-01 11:44 | 0.04531 | 120.82524 | 22586 ft | 471 kts | 250° |
| 2026-05-01 11:44 | 0.03280 | 120.79500 | 21919 ft | 466 kts | 249° |
| 2026-05-01 11:45 | 0.01999 | 120.76571 | 21532 ft | 454 kts | 248° |
| 2026-05-01 11:45 | 0.00642 | 120.73763 | 21184 ft | 442 kts | 245° |
| 2026-05-01 11:45 | -0.00786 | 120.71084 | 20852 ft | 432 kts | 243° |
| 2026-05-01 11:45 | -0.02283 | 120.68526 | 20545 ft | 422 kts | 241° |
| 2026-05-01 11:46 | -0.03836 | 120.66063 | 20118 ft | 416 kts | 239° |
| 2026-05-01 11:46 | -0.05444 | 120.63682 | 19746 ft | 410 kts | 237° |
| 2026-05-01 11:46 | -0.07081 | 120.61379 | 19359 ft | 404 kts | 238° |
| 2026-05-01 11:46 | -0.08643 | 120.59069 | 18957 ft | 399 kts | 239° |
| 2026-05-01 11:47 | -0.10113 | 120.56734 | 18570 ft | 394 kts | 242° |
| 2026-05-01 11:47 | -0.11465 | 120.54422 | 18333 ft | 385 kts | 243° |
| 2026-05-01 11:47 | -0.12735 | 120.52105 | 18164 ft | 374 kts | 245° |
| 2026-05-01 11:47 | -0.13968 | 120.49854 | 17923 ft | 365 kts | 244° |
| 2026-05-01 11:48 | -0.15218 | 120.47673 | 17684 ft | 356 kts | 243° |
| 2026-05-01 11:48 | -0.16479 | 120.45515 | 16856 ft | 364 kts | 243° |
| 2026-05-01 11:48 | -0.17802 | 120.43399 | 16693 ft | 353 kts | 239° |
| 2026-05-01 11:48 | -0.19132 | 120.41410 | 16704 ft | 337 kts | 240° |
| 2026-05-01 11:49 | -0.20380 | 120.39431 | 16277 ft | 337 kts | 243° |
| 2026-05-01 11:49 | -0.21566 | 120.37416 | 15923 ft | 334 kts | 244° |
| 2026-05-01 11:49 | -0.22695 | 120.35408 | 15569 ft | 331 kts | 243° |
| 2026-05-01 11:49 | -0.23885 | 120.33442 | 15224 ft | 328 kts | 242° |
| 2026-05-01 11:50 | -0.25103 | 120.31541 | 14999 ft | 322 kts | 241° |
| 2026-05-01 11:50 | -0.26264 | 120.29674 | 14702 ft | 319 kts | 242° |
| 2026-05-01 11:50 | -0.27441 | 120.27797 | 14313 ft | 319 kts | 242° |
| 2026-05-01 11:50 | -0.28595 | 120.25917 | 14026 ft | 315 kts | 243° |
| 2026-05-01 11:51 | -0.29731 | 120.24054 | 13755 ft | 312 kts | 243° |
| 2026-05-01 11:51 | -0.30841 | 120.22222 | 13386 ft | 302 kts | 244° |
| 2026-05-01 11:51 | -0.31924 | 120.20445 | 12907 ft | 301 kts | 243° |
| 2026-05-01 11:51 | -0.33036 | 120.18675 | 12513 ft | 299 kts | 242° |
| 2026-05-01 11:52 | -0.34137 | 120.16927 | 12196 ft | 295 kts | 243° |
| 2026-05-01 11:52 | -0.35199 | 120.15184 | 11854 ft | 292 kts | 244° |
| 2026-05-01 11:52 | -0.36214 | 120.13426 | 11452 ft | 291 kts | 244° |
| 2026-05-01 11:52 | -0.37269 | 120.11707 | 11064 ft | 290 kts | 242° |
| 2026-05-01 11:53 | -0.38344 | 120.10006 | 10676 ft | 289 kts | 242° |
| 2026-05-01 11:53 | -0.39404 | 120.08302 | 10296 ft | 288 kts | 242° |
| 2026-05-01 11:53 | -0.40438 | 120.06597 | 9901 ft | 287 kts | 244° |
| 2026-05-01 11:53 | -0.41411 | 120.04846 | 9423 ft | 289 kts | 246° |
| 2026-05-01 11:54 | -0.42298 | 120.03047 | 8989 ft | 288 kts | 248° |
| 2026-05-01 11:54 | -0.43188 | 120.01286 | 8467 ft | 290 kts | 243° |
| 2026-05-01 11:54 | -0.44224 | 119.99531 | 7892 ft | 295 kts | 243° |
| 2026-05-01 11:54 | -0.45260 | 119.97768 | 7509 ft | 292 kts | 243° |
| 2026-05-01 11:55 | -0.46263 | 119.96036 | 7081 ft | 280 kts | 244° |
| 2026-05-01 11:55 | -0.47207 | 119.94406 | 6453 ft | 263 kts | 242° |
| 2026-05-01 11:55 | -0.48181 | 119.92917 | 5812 ft | 247 kts | 242° |
| 2026-05-01 11:55 | -0.49122 | 119.91521 | 5077 ft | 234 kts | 240° |
| 2026-05-01 11:56 | -0.49988 | 119.90250 | 4591 ft | 207 kts | 247° |
| 2026-05-01 11:56 | -0.50676 | 119.89071 | 3991 ft | 190 kts | 248° |
| 2026-05-01 11:56 | -0.51324 | 119.87952 | 3332 ft | 180 kts | 248° |
| 2026-05-01 11:56 | -0.51925 | 119.86879 | 2730 ft | 178 kts | 250° |
| 2026-05-01 11:57 | -0.52540 | 119.85703 | 2312 ft | 202 kts | 253° |
| 2026-05-01 11:57 | -0.52976 | 119.84879 | 2274 ft | 202 kts | 252° |
| 2026-05-01 11:57 | -0.53629 | 119.83644 | 2308 ft | 200 kts | 254° |
| 2026-05-01 11:57 | -0.54248 | 119.82416 | 2292 ft | 192 kts | 248° |
| 2026-05-01 11:58 | -0.54972 | 119.81347 | 2032 ft | 181 kts | 241° |
| 2026-05-01 11:58 | -0.55754 | 119.80382 | 1688 ft | 176 kts | 236° |
| 2026-05-01 11:58 | -0.57734 | 119.78898 | 1322 ft | 184 kts | 215° |
| 2026-05-01 11:59 | -0.58959 | 119.78533 | 1275 ft | 185 kts | 199° |
| 2026-05-01 11:59 | -0.60218 | 119.78499 | 1380 ft | 177 kts | 188° |
| 2026-05-01 11:59 | -0.61419 | 119.78619 | 1429 ft | 171 kts | 187° |
| 2026-05-01 12:00 | -0.63727 | 119.78962 | 1417 ft | 163 kts | 183° |
| 2026-05-01 12:00 | -0.64820 | 119.79203 | 1402 ft | 160 kts | 179° |
| 2026-05-01 12:00 | -0.67012 | 119.80018 | 1133 ft | 175 kts | 164° |
| 2026-05-01 12:01 | -0.68081 | 119.80640 | 1140 ft | 174 kts | 164° |
| 2026-05-01 12:01 | -0.69142 | 119.81197 | 1164 ft | 170 kts | 167° |
| 2026-05-01 12:01 | -0.70217 | 119.81711 | 1167 ft | 176 kts | 167° |
| 2026-05-01 12:01 | -0.71380 | 119.82226 | 922 ft | 199 kts | 170° |
| 2026-05-01 12:02 | -0.72737 | 119.82745 | 833 ft | 209 kts | 171° |
| 2026-05-01 12:02 | -0.74109 | 119.83211 | 965 ft | 212 kts | 172° |
| 2026-05-01 12:02 | -0.75526 | 119.83654 | 1100 ft | 215 kts | 172° |
| 2026-05-01 12:02 | -0.76958 | 119.84140 | 1194 ft | 221 kts | 163° |
| 2026-05-01 12:03 | -0.78312 | 119.84894 | 1329 ft | 222 kts | 154° |
| 2026-05-01 12:03 | -0.79575 | 119.85671 | 1408 ft | 203 kts | 160° |
| 2026-05-01 12:03 | -0.80753 | 119.86268 | 1381 ft | 182 kts | 165° |
| 2026-05-01 12:03 | -0.81879 | 119.86768 | 1288 ft | 175 kts | 169° |
| 2026-05-01 12:04 | -0.83009 | 119.87180 | 1186 ft | 172 kts | 172° |
| 2026-05-01 12:04 | -0.84139 | 119.87580 | 1048 ft | 172 kts | 171° |
| 2026-05-01 12:04 | -0.85255 | 119.88016 | 962 ft | 173 kts | 168° |
| 2026-05-01 12:04 | -0.86342 | 119.88534 | 904 ft | 172 kts | 167° |
| 2026-05-01 12:05 | -0.87440 | 119.88982 | 824 ft | 172 kts | 172° |
| 2026-05-01 12:05 | -0.89640 | 119.89962 | 607 ft | 169 kts | 162° |
| 2026-05-01 12:05 | -0.90678 | 119.90447 | 322 ft | 162 kts | 167° |
| 2026-05-01 12:06 | -0.91619 | 119.90857 | 275 ft | 115 kts | 156° |
| 2026-05-01 12:06 | -0.91945 | 119.90995 | 261 ft | 24 kts | 157° |
| 2026-05-01 12:06 | -0.92097 | 119.91072 | 254 ft | 26 kts | 154° |
| 2026-05-01 12:06 | -0.92275 | 119.91147 | 241 ft | 29 kts | 160° |
| 2026-05-01 12:07 | -0.92429 | 119.91215 | 235 ft | 10 kts | 150° |